createdAt,value
2022-08-12T00:02:45.244Z,73.20
2022-08-12T00:05:32.172Z,72.30
2022-08-12T00:08:28.519Z,72.70
2022-08-12T00:11:17.088Z,73.10
2022-08-12T00:14:03.026Z,73.20
2022-08-12T00:16:49.496Z,73.20
2022-08-12T00:19:34.864Z,73.60
2022-08-12T00:22:20.328Z,73.40
2022-08-12T00:25:06.424Z,73.60
2022-08-12T00:27:51.616Z,73.90
2022-08-12T00:30:36.974Z,74.20
2022-08-12T00:33:22.522Z,74.50
2022-08-12T00:36:18.675Z,74.90
2022-08-12T00:39:17.574Z,75.60
2022-08-12T00:42:04.446Z,76.20
2022-08-12T00:44:31.191Z,76.70
2022-08-12T00:47:01.981Z,76.90
2022-08-12T00:49:30.518Z,77.30
2022-08-12T00:52:09.916Z,77.50
2022-08-12T00:54:44.857Z,78.00
2022-08-12T00:57:19.979Z,78.10
2022-08-12T00:59:58.427Z,78.30
2022-08-12T01:02:28.498Z,78.30
2022-08-12T01:05:21.376Z,78.40
2022-08-12T01:08:08.266Z,78.70
2022-08-12T01:10:56.724Z,78.80
2022-08-12T01:13:24.128Z,78.90
2022-08-12T01:15:53.611Z,79.20
2022-08-12T01:18:23.610Z,79.40
2022-08-12T01:21:11.828Z,79.70
2022-08-12T01:24:30.018Z,79.90
2022-08-12T01:26:56.275Z,80.30
2022-08-12T01:29:26.758Z,80.60
2022-08-12T01:31:58.102Z,81.20
2022-08-12T01:34:36.802Z,81.50
2022-08-12T01:37:07.155Z,81.60
2022-08-12T01:40:35.438Z,81.80
2022-08-12T01:42:51.843Z,82.10
2022-08-12T01:45:24.288Z,82.60
2022-08-12T01:48:05.104Z,83.10
2022-08-12T01:50:50.397Z,83.50
2022-08-12T01:53:20.791Z,83.70
2022-08-12T01:55:48.276Z,84.30
2022-08-12T01:58:27.018Z,84.50
2022-08-12T02:01:01.683Z,84.80
2022-08-12T02:03:55.544Z,85.20
2022-08-12T02:07:14.573Z,85.40
2022-08-12T02:10:50.133Z,85.70
2022-08-12T02:13:49.080Z,86.10
2022-08-12T02:16:41.315Z,86.50
2022-08-12T02:19:32.493Z,86.40
2022-08-12T02:22:32.039Z,86.50
2022-08-12T02:25:15.378Z,87.10
2022-08-12T02:27:45.746Z,87.40
2022-08-12T02:30:15.196Z,87.60
2022-08-12T02:32:45.110Z,87.90
2022-08-12T02:35:25.724Z,88.20
2022-08-12T02:37:55.684Z,88.50
2022-08-12T02:40:24.069Z,89.20
2022-08-12T02:43:22.695Z,89.40
2022-08-12T02:46:13.833Z,89.80
2022-08-12T02:48:51.810Z,90.00
2022-08-12T02:51:30.937Z,90.10
2022-08-12T02:54:02.909Z,90.40
2022-08-12T02:56:41.160Z,90.40
2022-08-12T02:59:11.866Z,90.50
2022-08-12T03:01:48.214Z,90.50
2022-08-12T03:04:24.406Z,90.60
2022-08-12T03:07:16.751Z,90.70
2022-08-12T03:10:07.159Z,91.00
2022-08-12T03:12:49.484Z,90.90
2022-08-12T03:15:22.197Z,90.90
2022-08-12T03:18:24.049Z,90.80
2022-08-12T03:20:54.680Z,91.00
2022-08-12T03:23:30.259Z,91.10
2022-08-12T03:26:01.595Z,91.10
2022-08-12T03:28:49.765Z,91.10
2022-08-12T03:31:25.782Z,91.00
2022-08-12T03:34:01.520Z,91.10
2022-08-12T03:36:31.207Z,91.30
2022-08-12T03:39:35.562Z,91.60
2022-08-12T03:42:22.215Z,91.70
2022-08-12T03:45:52.696Z,91.90
2022-08-12T03:48:38.701Z,92.10
2022-08-12T03:51:24.835Z,92.20
2022-08-12T03:54:11.452Z,92.60
2022-08-12T03:56:57.767Z,92.60
2022-08-12T03:59:43.262Z,92.50
2022-08-12T04:02:14.931Z,92.50
2022-08-12T04:04:45.095Z,92.70
2022-08-12T04:07:12.914Z,92.90
2022-08-12T04:09:41.850Z,92.90
2022-08-12T04:12:29.269Z,93.00
2022-08-12T04:15:00.897Z,93.20
2022-08-12T04:17:28.581Z,93.30
2022-08-12T04:19:56.534Z,93.40
2022-08-12T04:22:26.084Z,93.50
2022-08-12T04:24:53.811Z,93.60
2022-08-12T04:27:20.828Z,93.80
2022-08-12T04:30:21.053Z,93.70
2022-08-12T04:32:37.700Z,93.70
2022-08-12T04:35:08.057Z,93.70
2022-08-12T04:37:58.138Z,93.70
2022-08-12T04:40:28.465Z,93.70
2022-08-12T04:42:55.971Z,93.80
2022-08-12T04:45:22.905Z,93.70
2022-08-12T04:47:49.852Z,93.70
2022-08-12T04:50:35.373Z,93.60
2022-08-12T04:53:05.240Z,93.60
2022-08-12T04:55:33.375Z,93.60
2022-08-12T04:58:00.292Z,93.60
2022-08-12T05:00:27.613Z,93.70
2022-08-12T05:02:54.722Z,93.60
2022-08-12T05:05:23.356Z,93.80
2022-08-12T05:07:54.241Z,93.70
2022-08-12T05:10:33.203Z,93.80
2022-08-12T05:13:06.843Z,93.90
2022-08-12T05:15:34.767Z,94.20
2022-08-12T05:18:19.026Z,94.10
2022-08-12T05:20:48.257Z,94.20
2022-08-12T05:23:17.512Z,94.00
2022-08-12T05:25:49.215Z,94.00
2022-08-12T05:28:18.091Z,94.00
2022-08-12T05:30:45.667Z,94.10
2022-08-12T05:33:14.759Z,94.30
2022-08-12T05:35:43.846Z,94.10
2022-08-12T05:38:36.572Z,94.00
2022-08-12T05:41:06.263Z,93.80
2022-08-12T05:43:36.145Z,93.70
2022-08-12T05:46:02.811Z,91.60
2022-08-12T05:48:30.735Z,85.70
2022-08-12T05:50:57.524Z,82.80
2022-08-12T05:53:24.201Z,83.00
2022-08-12T05:55:53.143Z,84.30
2022-08-12T05:58:21.089Z,86.10
2022-08-12T06:00:47.728Z,86.90
2022-08-12T06:03:17.376Z,87.40
2022-08-12T06:05:55.585Z,88.70
2022-08-12T06:08:23.942Z,89.20
2022-08-12T06:10:50.881Z,88.70
2022-08-12T06:13:28.734Z,88.50
2022-08-12T06:16:07.207Z,87.80
2022-08-12T06:18:34.346Z,87.40
2022-08-12T06:21:01.885Z,86.90
2022-08-12T06:23:30.166Z,86.30
2022-08-12T06:25:58.088Z,86.30
2022-08-12T06:28:25.631Z,85.20
2022-08-12T06:31:22.261Z,85.50
2022-08-12T06:33:57.555Z,84.60
2022-08-12T06:36:30.064Z,83.70
2022-08-12T06:38:59.497Z,83.60
2022-08-12T06:42:05.081Z,84.60
2022-08-12T06:44:32.491Z,84.80
2022-08-12T06:46:59.285Z,83.30
2022-08-12T06:49:27.540Z,79.10
2022-08-12T06:51:56.913Z,75.30
2022-08-12T06:54:31.108Z,72.00
2022-08-12T06:57:14.275Z,72.20
2022-08-12T06:59:50.371Z,70.40
2022-08-12T07:02:20.514Z,66.90
2022-08-12T07:04:48.068Z,66.30
2022-08-12T07:07:15.250Z,65.20
2022-08-12T07:10:06.818Z,64.50
2022-08-12T07:12:30.356Z,63.90
2022-08-12T07:14:58.757Z,63.40
2022-08-12T07:17:35.644Z,63.00
2022-08-12T07:20:05.835Z,62.30
2022-08-12T07:22:33.323Z,61.60
2022-08-12T07:25:18.526Z,61.60
2022-08-12T07:27:46.529Z,61.40
2022-08-12T07:30:14.257Z,61.10
2022-08-12T07:32:41.389Z,61.20
2022-08-12T07:35:08.526Z,60.70
2022-08-12T07:37:41.973Z,60.60
2022-08-12T07:40:11.573Z,60.20
2022-08-12T07:42:40.149Z,60.10
2022-08-12T07:45:07.513Z,60.40
2022-08-12T07:47:34.530Z,60.50
2022-08-12T07:50:05.232Z,60.50
2022-08-12T07:52:42.565Z,59.80
2022-08-12T07:55:11.273Z,59.30
2022-08-12T07:57:59.120Z,60.10
2022-08-12T08:00:28.181Z,59.60
2022-08-12T08:02:55.482Z,60.00
2022-08-12T08:05:24.694Z,59.70
2022-08-12T08:07:53.484Z,59.60
2022-08-12T08:10:20.865Z,59.40
2022-08-12T08:12:58.771Z,59.20
2022-08-12T08:16:00.646Z,59.00
2022-08-12T08:18:26.863Z,58.80
2022-08-12T08:20:54.928Z,58.60
2022-08-12T08:23:21.814Z,59.20
2022-08-12T08:25:49.978Z,59.10
2022-08-12T08:28:17.305Z,59.30
2022-08-12T08:30:47.668Z,58.10
2022-08-12T08:33:23.046Z,57.70
2022-08-12T08:36:03.109Z,57.00
2022-08-12T08:38:32.771Z,57.00
2022-08-12T08:42:19.028Z,57.50
2022-08-12T08:44:10.581Z,56.90
2022-08-12T08:46:38.096Z,56.50
2022-08-12T08:49:05.735Z,56.20
2022-08-12T08:51:33.317Z,56.10
2022-08-12T08:54:00.126Z,55.90
2022-08-12T08:56:30.354Z,55.80
2022-08-12T08:58:57.705Z,56.00
2022-08-12T09:01:25.616Z,55.90
2022-08-12T09:05:09.007Z,56.20
2022-08-12T09:06:41.931Z,56.10
2022-08-12T09:09:20.357Z,55.50
2022-08-12T09:12:11.016Z,55.90
2022-08-12T09:14:43.502Z,55.80
2022-08-12T09:17:21.230Z,55.60
2022-08-12T09:19:55.241Z,55.20
2022-08-12T09:22:43.274Z,53.90
2022-08-12T09:25:10.943Z,54.00
2022-08-12T09:27:55.415Z,53.30
2022-08-12T09:30:48.799Z,53.60
2022-08-12T09:33:18.905Z,53.70
2022-08-12T09:36:03.332Z,52.80
2022-08-12T09:38:33.640Z,52.30
2022-08-12T09:42:08.911Z,52.90
2022-08-12T09:44:37.796Z,52.70
2022-08-12T09:46:56.096Z,52.20
2022-08-12T09:49:24.883Z,52.20
2022-08-12T09:51:54.971Z,51.50
2022-08-12T09:54:34.917Z,51.80
2022-08-12T09:58:45.162Z,52.10
2022-08-12T10:00:16.221Z,51.50
2022-08-12T10:02:59.648Z,51.60
2022-08-12T10:06:20.511Z,51.60
2022-08-12T10:08:19.890Z,51.10
2022-08-12T10:11:06.805Z,50.80
2022-08-12T10:13:43.038Z,49.40
2022-08-12T10:16:22.135Z,50.40
2022-08-12T10:18:57.177Z,49.80
2022-08-12T10:21:36.044Z,50.30
2022-08-12T10:24:05.256Z,50.00
2022-08-12T10:26:51.820Z,50.60
2022-08-12T10:30:37.843Z,50.00
2022-08-12T10:32:44.946Z,50.40
2022-08-12T10:35:14.795Z,50.30
2022-08-12T10:38:36.412Z,50.60
2022-08-12T10:40:33.219Z,50.40
2022-08-12T10:43:19.963Z,50.80
2022-08-12T10:45:49.178Z,51.10
2022-08-12T10:48:21.839Z,50.90
2022-08-12T10:51:01.998Z,50.70
2022-08-12T10:53:45.086Z,49.60
2022-08-12T10:56:17.131Z,50.10
2022-08-12T10:58:47.138Z,49.50
2022-08-12T11:01:50.374Z,50.20
2022-08-12T11:04:22.743Z,50.20
2022-08-12T11:07:10.318Z,49.80
2022-08-12T11:09:56.554Z,49.60
2022-08-12T11:12:55.657Z,48.70
2022-08-12T11:15:19.411Z,48.70
2022-08-12T11:17:54.081Z,49.00
2022-08-12T11:20:24.423Z,48.40
2022-08-12T11:23:04.238Z,48.20
2022-08-12T11:25:58.162Z,47.90
2022-08-12T11:28:33.899Z,47.70
2022-08-12T11:31:03.405Z,46.70
2022-08-12T11:34:05.276Z,46.10
2022-08-12T11:36:17.534Z,46.20
2022-08-12T11:38:50.290Z,47.20
2022-08-12T11:41:31.668Z,47.30
2022-08-12T11:44:29.101Z,47.70
2022-08-12T11:46:52.423Z,47.20
2022-08-12T11:49:26.897Z,47.50
2022-08-12T11:52:01.089Z,47.50
2022-08-12T11:54:29.653Z,47.30
2022-08-12T11:57:00.070Z,47.10
2022-08-12T12:02:18.832Z,45.90
2022-08-12T12:04:53.053Z,46.10
2022-08-12T12:07:33.692Z,46.90
2022-08-12T12:10:10.832Z,45.90
2022-08-12T12:12:37.897Z,46.10
2022-08-12T12:15:09.823Z,46.00
2022-08-12T12:17:38.806Z,45.20
2022-08-12T12:20:09.328Z,45.30
2022-08-12T12:22:37.449Z,45.10
2022-08-12T12:25:13.349Z,45.10
2022-08-12T12:28:05.055Z,45.10
2022-08-12T12:30:35.876Z,45.50
2022-08-12T12:33:05.124Z,44.90
2022-08-12T12:36:05.779Z,44.60
2022-08-12T12:38:19.901Z,44.30
2022-08-12T12:40:50.574Z,44.60
2022-08-12T12:43:42.566Z,44.50
2022-08-12T12:46:05.316Z,43.70
2022-08-12T12:48:32.053Z,44.00
2022-08-12T12:51:49.225Z,44.10
2022-08-12T12:54:08.653Z,44.20
2022-08-12T12:56:40.242Z,44.10
2022-08-12T12:59:07.482Z,43.60
2022-08-12T13:01:54.403Z,43.90
2022-08-12T13:04:21.470Z,43.30
2022-08-12T13:06:51.957Z,43.40
2022-08-12T13:09:19.412Z,42.50
2022-08-12T13:11:53.021Z,42.50
2022-08-12T13:14:29.483Z,42.90
2022-08-12T13:17:00.955Z,42.10
2022-08-12T13:19:37.851Z,42.70
2022-08-12T13:22:21.334Z,42.50
2022-08-12T13:24:55.702Z,41.90
2022-08-12T13:27:41.528Z,42.00
2022-08-12T13:30:20.255Z,41.60
2022-08-12T13:32:59.110Z,42.30
2022-08-12T13:36:03.079Z,41.60
2022-08-12T13:38:13.065Z,41.30
2022-08-12T13:40:40.409Z,41.80
2022-08-12T13:43:07.517Z,42.40
2022-08-12T13:45:35.448Z,42.40
2022-08-12T13:48:05.611Z,42.90
2022-08-12T13:50:40.188Z,42.20
2022-08-12T13:53:24.461Z,41.90
2022-08-12T13:55:59.814Z,42.50
2022-08-12T13:58:30.327Z,42.00
2022-08-12T14:00:58.080Z,41.80
2022-08-12T14:03:28.427Z,42.10
2022-08-12T14:06:15.511Z,42.10
2022-08-12T14:08:43.136Z,42.20
2022-08-12T14:11:10.591Z,41.60
2022-08-12T14:14:04.235Z,41.60
2022-08-12T14:16:37.809Z,41.80
2022-08-12T14:19:22.008Z,42.30
2022-08-12T14:22:01.033Z,42.00
2022-08-12T14:24:35.434Z,41.80
2022-08-12T14:27:03.727Z,41.50
2022-08-12T14:29:56.191Z,41.70
2022-08-12T14:32:32.549Z,42.10
2022-08-12T14:34:59.235Z,42.70
2022-08-12T14:37:56.331Z,42.30
2022-08-12T14:40:18.799Z,42.20
2022-08-12T14:42:54.530Z,42.10
2022-08-12T14:45:22.831Z,42.40
2022-08-12T14:47:53.518Z,42.80
2022-08-12T14:50:37.430Z,42.70
2022-08-12T14:54:49.942Z,42.20
2022-08-12T14:59:20.681Z,42.90
2022-08-12T15:01:50.821Z,42.80
2022-08-12T15:04:22.470Z,42.30
2022-08-12T15:06:52.571Z,42.30
2022-08-12T15:09:29.041Z,42.40
2022-08-12T15:12:03.711Z,43.10
2022-08-12T15:14:31.739Z,42.40
2022-08-12T15:17:00.196Z,42.50
2022-08-12T15:20:32.040Z,42.50
2022-08-12T15:22:35.983Z,42.10
2022-08-12T15:25:07.086Z,42.20
2022-08-12T15:28:03.726Z,42.00
2022-08-12T15:30:30.652Z,42.30
2022-08-12T15:32:57.927Z,42.30
2022-08-12T15:35:31.150Z,42.20
2022-08-12T15:38:10.166Z,42.00
2022-08-12T15:40:48.314Z,42.50
2022-08-12T15:43:35.571Z,42.00
2022-08-12T15:46:04.700Z,42.40
2022-08-12T15:48:32.659Z,42.30
2022-08-12T15:51:00.505Z,42.60
2022-08-12T15:53:46.622Z,42.50
2022-08-12T15:56:29.282Z,42.50
2022-08-12T15:58:58.768Z,42.40
2022-08-12T16:01:35.583Z,41.20
2022-08-12T16:04:05.144Z,41.60
2022-08-12T16:09:55.777Z,41.50
2022-08-12T16:12:12.209Z,41.60
2022-08-12T16:14:41.404Z,42.50
2022-08-12T16:17:15.605Z,41.70
2022-08-12T16:20:02.409Z,42.00
2022-08-12T16:22:29.170Z,42.40
2022-08-12T16:24:56.574Z,43.00
2022-08-12T16:27:25.449Z,42.00
2022-08-12T16:29:57.464Z,41.70
2022-08-12T16:32:31.670Z,41.70
2022-08-12T16:34:59.899Z,42.10
2022-08-12T16:38:04.761Z,42.20
2022-08-12T16:40:16.089Z,42.50
2022-08-12T16:42:54.362Z,41.70
2022-08-12T16:45:32.275Z,42.10
2022-08-12T16:48:34.243Z,42.40
2022-08-12T16:51:09.314Z,42.10
2022-08-12T16:53:44.314Z,42.40
2022-08-12T16:56:14.685Z,42.30
2022-08-12T16:58:42.146Z,42.40
2022-08-12T17:01:14.601Z,42.50
2022-08-12T17:03:47.032Z,42.40
2022-08-12T17:06:27.554Z,42.40
2022-08-12T17:09:02.631Z,42.50
2022-08-12T17:11:32.502Z,42.20
2022-08-12T17:13:59.631Z,42.60
2022-08-12T17:16:30.358Z,42.40
2022-08-12T17:18:59.628Z,42.60
2022-08-12T17:21:41.591Z,42.70
2022-08-12T17:24:21.576Z,42.70
2022-08-12T17:26:53.724Z,42.40
2022-08-12T17:29:32.268Z,42.40
2022-08-12T17:32:10.001Z,43.30
2022-08-12T17:35:00.311Z,42.50
2022-08-12T17:37:27.742Z,42.50
2022-08-12T17:40:13.766Z,42.50
2022-08-12T17:42:47.712Z,42.40
2022-08-12T17:45:19.725Z,42.60
2022-08-12T17:48:04.815Z,42.90
2022-08-12T17:50:42.552Z,42.70
2022-08-12T17:53:10.075Z,42.70
2022-08-12T17:55:47.869Z,42.70
2022-08-12T17:58:37.343Z,42.90
2022-08-12T18:01:05.821Z,42.50
2022-08-12T18:04:05.356Z,42.70
2022-08-12T18:06:28.036Z,42.80
2022-08-12T18:08:58.675Z,43.00
2022-08-12T18:12:03.650Z,43.30
2022-08-12T18:17:46.937Z,43.40
2022-08-12T18:20:18.095Z,43.50
2022-08-12T18:22:47.077Z,43.70
2022-08-12T18:26:15.852Z,43.80
2022-08-12T18:28:29.170Z,43.90
2022-08-12T18:31:03.019Z,44.20
2022-08-12T18:33:41.567Z,44.30
2022-08-12T18:36:13.036Z,44.70
2022-08-12T18:38:41.457Z,44.90
2022-08-12T18:41:30.652Z,45.10
2022-08-12T18:44:12.143Z,45.50
2022-08-12T18:46:57.141Z,45.60
2022-08-12T18:49:33.305Z,46.00
2022-08-12T18:52:05.795Z,46.60
2022-08-12T18:54:53.901Z,46.90
2022-08-12T18:58:06.890Z,47.40
2022-08-12T19:00:21.057Z,47.90
2022-08-12T19:02:53.380Z,48.40
2022-08-12T19:05:20.882Z,48.60
2022-08-12T19:08:00.378Z,48.90
2022-08-12T19:10:31.212Z,49.20
2022-08-12T19:13:23.144Z,49.60
2022-08-12T19:15:54.144Z,50.00
2022-08-12T19:18:24.436Z,50.20
2022-08-12T19:20:56.885Z,50.60
2022-08-12T19:23:35.128Z,50.90
2022-08-12T19:26:05.392Z,51.40
2022-08-12T19:28:39.692Z,51.80
2022-08-12T19:31:56.039Z,52.30
2022-08-12T19:37:22.898Z,54.20
2022-08-12T19:40:09.768Z,54.70
2022-08-12T19:42:53.367Z,55.10
2022-08-12T19:45:22.202Z,56.10
2022-08-12T19:47:49.250Z,56.10
2022-08-12T19:50:19.675Z,55.10
2022-08-12T19:52:47.417Z,54.80
2022-08-12T19:55:21.165Z,54.90
2022-08-12T19:58:02.308Z,56.40
2022-08-12T20:00:34.445Z,56.90
2022-08-12T20:03:04.533Z,57.20
2022-08-12T20:06:05.328Z,57.40
2022-08-12T20:08:33.137Z,57.50
2022-08-12T20:12:09.559Z,57.70
2022-08-12T20:14:00.481Z,57.80
2022-08-12T20:16:51.900Z,58.50
2022-08-12T20:19:20.049Z,58.80
2022-08-12T20:21:47.012Z,59.10
2022-08-12T20:24:14.459Z,59.60
2022-08-12T20:26:42.979Z,59.60
2022-08-12T20:29:13.953Z,59.40
2022-08-12T20:31:41.466Z,59.70
2022-08-12T20:34:12.404Z,59.60
2022-08-12T20:36:44.244Z,59.50
2022-08-12T20:39:37.101Z,59.60
2022-08-12T20:42:07.200Z,59.80
2022-08-12T20:44:40.566Z,60.60
2022-08-12T20:47:18.038Z,60.70
2022-08-12T20:49:55.320Z,61.00
2022-08-12T20:52:29.900Z,61.30
2022-08-12T20:54:57.832Z,61.40
2022-08-12T20:57:38.506Z,61.70
2022-08-12T21:00:16.753Z,61.90
2022-08-12T21:02:50.180Z,62.10
2022-08-12T21:06:12.378Z,62.40
2022-08-12T21:08:27.331Z,62.80
2022-08-12T21:10:58.864Z,63.30
2022-08-12T21:13:26.710Z,63.60
2022-08-12T21:15:59.942Z,63.50
2022-08-12T21:18:30.533Z,63.20
2022-08-12T21:20:59.168Z,63.30
2022-08-12T21:23:30.774Z,63.70
2022-08-12T21:26:12.333Z,63.80
2022-08-12T21:28:58.457Z,64.00
2022-08-12T21:32:39.410Z,64.50
2022-08-12T21:34:19.918Z,64.90
2022-08-12T21:36:49.467Z,65.20
2022-08-12T21:39:21.453Z,65.50
2022-08-12T21:41:52.622Z,65.20
2022-08-12T21:45:43.997Z,65.10
2022-08-12T21:47:21.575Z,65.40
2022-08-12T21:50:04.351Z,65.60
2022-08-12T21:52:40.964Z,65.70
2022-08-12T21:55:19.061Z,66.10
2022-08-12T21:57:54.607Z,66.30
2022-08-12T22:00:34.333Z,66.40
2022-08-12T22:04:01.432Z,66.50
2022-08-12T22:06:26.044Z,67.00
2022-08-12T22:09:01.960Z,67.00
2022-08-12T22:11:41.958Z,67.10
2022-08-12T22:14:18.048Z,67.30
2022-08-12T22:16:52.016Z,67.60
2022-08-12T22:19:19.619Z,67.70
2022-08-12T22:21:53.064Z,67.90
2022-08-12T22:24:25.948Z,68.00
2022-08-12T22:26:54.941Z,68.40
2022-08-12T22:29:40.692Z,68.70
2022-08-12T22:32:11.308Z,68.90
2022-08-12T22:34:39.822Z,69.00
2022-08-12T22:37:11.547Z,69.40
2022-08-12T22:39:49.166Z,70.10
2022-08-12T22:42:35.646Z,69.60
2022-08-12T22:45:26.649Z,70.20
2022-08-12T22:47:56.320Z,69.60
2022-08-12T22:50:26.883Z,69.50
2022-08-12T22:53:15.289Z,69.60
2022-08-12T22:56:00.080Z,69.60
2022-08-12T22:58:33.810Z,69.90
2022-08-12T23:01:02.268Z,70.30
2022-08-12T23:03:48.752Z,70.20
2022-08-12T23:06:19.923Z,70.70
2022-08-12T23:08:48.192Z,71.00
2022-08-12T23:11:16.062Z,71.10
2022-08-12T23:13:55.132Z,70.80
2022-08-12T23:16:31.802Z,70.80
2022-08-12T23:19:09.772Z,71.00
2022-08-12T23:22:05.356Z,71.80
2022-08-12T23:24:55.416Z,71.70
2022-08-12T23:27:51.361Z,72.00
2022-08-12T23:30:32.173Z,72.00
2022-08-12T23:33:13.226Z,72.10
2022-08-12T23:36:02.981Z,72.40
2022-08-12T23:41:13.253Z,73.00
2022-08-12T23:43:46.731Z,72.90
2022-08-12T23:46:18.712Z,73.10
2022-08-12T23:48:48.095Z,73.10
2022-08-12T23:51:25.366Z,73.00
2022-08-12T23:54:00.330Z,73.20
2022-08-12T23:56:33.737Z,73.10
2022-08-12T23:59:05.740Z,73.30
